Time;durP1;ratioP1;P1;durP2;ratioP2;P2;SDS_P1;SDS_P2;PMS_P1;PMS_P2;Temp;Humidity;BMP_temperature;BMP_pressure;BME280_temperature;BME280_humidity;BME280_pressure;Samples;Min_cycle;Max_cycle;Signal;HPM_P1;HPM_P2
2022/12/04 00:04:24;;;;;;;17.03;14.17;;;6.30;47.20;;;;;;10421912;28;20287;-71
2022/12/04 00:09:29;;;;;;;15.50;13.40;;;6.30;47.20;;;;;;10419926;28;20817;-71
2022/12/04 00:14:32;;;;;;;15.67;12.97;;;6.30;47.30;;;;;;10411442;28;20237;-71
2022/12/04 00:19:36;;;;;;;13.77;11.63;;;6.30;47.30;;;;;;10415396;28;20233;-70
2022/12/04 00:24:40;;;;;;;14.17;12.40;;;6.30;47.20;;;;;;10415118;28;20221;-71
2022/12/04 00:29:44;;;;;;;17.47;14.00;;;6.30;47.40;;;;;;10415926;28;20229;-71
2022/12/04 00:34:47;;;;;;;14.80;12.80;;;6.40;47.30;;;;;;10420173;28;20641;-71
2022/12/04 00:39:51;;;;;;;16.07;14.37;;;6.40;47.20;;;;;;10419631;28;20236;-70
2022/12/04 00:44:55;;;;;;;16.40;13.83;;;6.30;47.20;;;;;;10416795;28;20328;-71
2022/12/04 00:49:58;;;;;;;17.33;14.00;;;6.30;47.20;;;;;;10420702;28;20241;-71
2022/12/04 00:55:03;;;;;;;17.77;13.73;;;6.30;47.40;;;;;;10418387;28;20275;-71
2022/12/04 01:00:08;;;;;;;15.60;12.60;;;6.30;47.40;;;;;;10414620;28;20686;-71
2022/12/04 01:05:11;;;;;;;14.43;12.20;;;6.40;47.80;;;;;;10422426;28;20230;-71
2022/12/04 01:10:16;;;;;;;15.53;13.07;;;6.40;47.40;;;;;;10412498;28;20989;-71
2022/12/04 01:15:19;;;;;;;15.03;12.57;;;6.40;47.30;;;;;;10417798;28;20580;-68
2022/12/04 01:20:22;;;;;;;13.30;11.27;;;6.40;47.30;;;;;;10412974;28;20241;-68
2022/12/04 01:25:27;;;;;;;16.10;13.37;;;6.40;47.40;;;;;;10419743;28;20237;-68
2022/12/04 01:30:30;;;;;;;15.37;12.30;;;6.40;47.30;;;;;;10419295;28;20915;-68
2022/12/04 01:35:33;;;;;;;15.23;12.77;;;6.40;47.20;;;;;;10415061;28;20228;-67
2022/12/04 01:40:43;;;;;;;14.07;12.43;;;6.40;47.20;;;;;;10424713;28;20246;-67
2022/12/04 01:45:48;;;;;;;14.50;12.43;;;6.40;47.30;;;;;;10414172;28;20263;-67
2022/12/04 01:50:56;;;;;;;14.77;12.77;;;6.40;47.20;;;;;;10411621;28;20244;-67
2022/12/04 01:56:01;;;;;;;15.57;12.33;;;6.40;47.20;;;;;;10417362;28;20803;-67
2022/12/04 02:01:07;;;;;;;13.13;11.43;;;6.40;47.40;;;;;;10412673;28;20653;-67
2022/12/04 02:06:11;;;;;;;13.33;11.30;;;6.40;47.40;;;;;;10417474;28;20261;-67
2022/12/04 02:11:26;;;;;;;15.37;12.60;;;6.40;47.40;;;;;;10412295;28;20287;-67
2022/12/04 02:16:36;;;;;;;14.73;12.40;;;6.40;47.70;;;;;;10425287;28;20289;-67
2022/12/04 02:21:43;;;;;;;15.10;12.10;;;6.40;47.50;;;;;;10423650;28;20651;-67
2022/12/04 02:26:50;;;;;;;15.57;13.10;;;6.50;47.40;;;;;;10423421;28;20275;-67
2022/12/04 02:31:58;;;;;;;12.17;10.87;;;6.50;47.50;;;;;;10425756;28;20225;-74
2022/12/04 02:37:08;;;;;;;14.43;12.43;;;6.40;47.40;;;;;;10419529;28;20244;-71
2022/12/04 02:42:17;;;;;;;13.93;11.87;;;6.40;47.30;;;;;;10423429;28;20236;-74
2022/12/04 02:47:24;;;;;;;17.20;13.10;;;6.40;47.40;;;;;;10425470;28;20670;-74
2022/12/04 02:52:33;;;;;;;14.33;12.30;;;6.40;47.40;;;;;;10427625;28;20236;-74
2022/12/04 02:57:42;;;;;;;15.23;12.63;;;6.30;47.40;;;;;;10424169;28;20229;-74
2022/12/04 03:02:52;;;;;;;14.87;12.23;;;6.30;47.60;;;;;;10422542;28;20233;-74
2022/12/04 03:07:58;;;;;;;15.43;12.53;;;6.30;47.70;;;;;;10423518;28;20240;-74
2022/12/04 03:13:08;;;;;;;16.00;13.03;;;6.40;47.60;;;;;;10421120;28;20234;-70
2022/12/04 03:18:18;;;;;;;16.03;12.43;;;6.40;47.60;;;;;;10422943;28;20237;-74
2022/12/04 03:23:29;;;;;;;14.07;11.80;;;6.40;47.80;;;;;;10429257;28;20233;-74
2022/12/04 03:28:42;;;;;;;16.77;12.80;;;6.40;48.00;;;;;;10421609;28;20285;-74
2022/12/04 03:33:47;;;;;;;14.30;11.67;;;6.40;47.90;;;;;;10427325;28;20236;-74
2022/12/04 03:38:57;;;;;;;16.50;13.30;;;6.40;47.90;;;;;;10424982;28;20236;-74
2022/12/04 03:44:05;;;;;;;17.83;13.27;;;6.50;47.90;;;;;;10424356;28;20240;-74
2022/12/04 03:49:15;;;;;;;17.20;13.23;;;6.50;47.80;;;;;;10419001;28;20773;-74
2022/12/04 03:54:22;;;;;;;18.47;14.17;;;6.60;48.10;;;;;;10412367;28;20254;-74
2022/12/04 03:59:29;;;;;;;19.57;14.17;;;6.60;48.00;;;;;;10420911;28;20237;-74
2022/12/04 04:04:36;;;;;;;22.00;14.87;;;6.70;48.00;;;;;;10420567;28;20650;-74
2022/12/04 04:09:43;;;;;;;18.87;13.47;;;6.70;47.80;;;;;;10419116;28;20730;-74
2022/12/04 04:25:41;;;;;;;15.93;13.20;;;6.70;48.00;;;;;;10425952;28;20275;-74
2022/12/04 04:30:44;;;;;;;20.13;15.57;;;6.80;47.90;;;;;;10418017;28;20237;-74
2022/12/04 04:35:55;;;;;;;20.90;15.20;;;6.80;47.80;;;;;;10418300;28;20586;-74
2022/12/04 04:41:01;;;;;;;20.63;14.67;;;6.80;47.90;;;;;;10423284;28;20307;-74
2022/12/04 04:46:08;;;;;;;26.77;16.07;;;6.80;47.60;;;;;;10422091;28;20226;-74
2022/12/04 04:51:14;;;;;;;18.27;14.90;;;6.90;47.60;;;;;;10419391;28;20329;-74
2022/12/04 04:56:17;;;;;;;22.83;15.90;;;6.80;47.60;;;;;;10420925;28;20221;-74
2022/12/04 05:01:24;;;;;;;21.70;16.57;;;6.80;47.50;;;;;;10420495;28;20230;-74
2022/12/04 05:06:29;;;;;;;23.43;16.67;;;6.70;47.40;;;;;;10418328;28;20235;-74
2022/12/04 05:11:32;;;;;;;21.40;16.43;;;6.70;47.50;;;;;;10419728;28;20225;-74
2022/12/04 05:16:35;;;;;;;21.73;16.07;;;6.70;47.50;;;;;;10414592;28;20825;-74
2022/12/04 05:21:40;;;;;;;23.10;15.27;;;6.70;47.40;;;;;;10414451;28;20275;-74
2022/12/04 05:26:44;;;;;;;20.03;15.70;;;6.70;47.60;;;;;;10420773;28;20244;-74
2022/12/04 05:31:47;;;;;;;19.37;15.50;;;6.60;47.60;;;;;;10420771;28;20229;-74
2022/12/04 05:36:52;;;;;;;19.43;15.53;;;6.60;47.80;;;;;;10416558;28;20234;-74
2022/12/04 05:41:55;;;;;;;18.73;14.97;;;6.60;48.00;;;;;;10416185;28;21020;-74
2022/12/04 05:46:58;;;;;;;18.60;15.23;;;6.60;47.90;;;;;;10415521;28;20758;-74
2022/12/04 05:52:05;;;;;;;20.70;15.47;;;6.70;47.90;;;;;;10419771;28;20233;-72
2022/12/04 05:57:09;;;;;;;19.90;15.73;;;6.60;48.00;;;;;;10419385;28;20225;-74
2022/12/04 06:02:12;;;;;;;19.00;14.63;;;6.70;48.60;;;;;;10410015;28;20631;-69
2022/12/04 06:07:16;;;;;;;18.67;15.33;;;6.70;47.90;;;;;;10411050;28;20290;-69
2022/12/04 06:12:19;;;;;;;19.23;15.23;;;6.70;48.20;;;;;;10416766;28;20283;-69
2022/12/04 06:17:22;;;;;;;18.53;14.43;;;6.70;48.10;;;;;;10413865;28;20579;-69
2022/12/04 06:22:27;;;;;;;18.53;14.70;;;6.70;48.00;;;;;;10416211;28;20248;-69
2022/12/04 06:27:30;;;;;;;17.33;14.50;;;6.70;48.10;;;;;;10415473;28;20779;-69
2022/12/04 06:32:33;;;;;;;16.97;14.30;;;6.80;48.10;;;;;;10414411;28;20229;-69
2022/12/04 06:37:38;;;;;;;19.77;14.90;;;6.80;48.10;;;;;;10411708;28;20229;-69
2022/12/04 06:42:41;;;;;;;17.70;13.97;;;6.80;48.10;;;;;;10412497;28;20645;-69
2022/12/04 06:47:44;;;;;;;18.07;14.70;;;6.80;47.80;;;;;;10412443;28;20242;-69
2022/12/04 06:52:48;;;;;;;16.17;13.50;;;6.80;47.60;;;;;;10416490;28;20720;-69
2022/12/04 06:57:51;;;;;;;16.33;12.70;;;6.70;47.60;;;;;;10423133;28;20230;-69
2022/12/04 07:02:55;;;;;;;14.67;13.07;;;6.60;47.50;;;;;;10424935;28;20229;-69
2022/12/04 07:07:59;;;;;;;16.87;13.57;;;6.60;47.60;;;;;;10426179;28;20311;-69
2022/12/04 07:13:03;;;;;;;16.40;13.43;;;6.60;47.80;;;;;;10420562;28;20760;-69
2022/12/04 07:18:06;;;;;;;16.57;13.07;;;6.60;47.70;;;;;;10424046;28;20233;-70
2022/12/04 07:23:10;;;;;;;14.30;12.47;;;6.60;47.90;;;;;;10426020;28;20883;-70
2022/12/04 07:28:14;;;;;;;14.17;12.37;;;6.60;48.10;;;;;;10423723;28;20241;-67
2022/12/04 07:33:17;;;;;;;15.30;12.93;;;6.60;48.00;;;;;;10417367;28;20977;-67
2022/12/04 07:38:21;;;;;;;12.67;11.30;;;6.60;47.90;;;;;;10420395;28;20248;-70
2022/12/04 07:43:25;;;;;;;13.13;11.50;;;6.60;48.10;;;;;;10422271;28;20651;-70
2022/12/04 07:48:32;;;;;;;15.83;12.67;;;6.60;47.90;;;;;;10420692;28;20843;-74
2022/12/04 07:53:37;;;;;;;12.90;11.30;;;6.70;47.90;;;;;;10423919;28;20229;-74
2022/12/04 07:58:41;;;;;;;14.67;11.77;;;6.60;47.90;;;;;;10425468;28;20263;-75
2022/12/04 08:03:45;;;;;;;13.07;10.60;;;6.60;47.90;;;;;;10418247;28;20783;-75
2022/12/04 08:08:53;;;;;;;13.23;11.20;;;6.60;47.90;;;;;;10422585;28;20271;-71
2022/12/04 08:13:57;;;;;;;12.90;11.50;;;6.60;48.00;;;;;;10424200;28;20229;-70
2022/12/04 08:19:02;;;;;;;14.43;12.20;;;6.70;47.90;;;;;;10423729;28;20249;-75
2022/12/04 08:24:06;;;;;;;13.03;11.27;;;6.60;47.80;;;;;;10420846;28;20717;-75
2022/12/04 08:29:09;;;;;;;12.50;11.20;;;6.60;47.90;;;;;;10413974;28;20291;-70
2022/12/04 08:34:14;;;;;;;12.00;10.70;;;6.60;47.90;;;;;;10420066;28;20229;-70
2022/12/04 08:39:18;;;;;;;12.13;10.90;;;6.60;47.90;;;;;;10421095;28;20240;-69
2022/12/04 08:44:22;;;;;;;11.83;10.20;;;6.60;48.00;;;;;;10413714;28;20237;-74
2022/12/04 08:49:25;;;;;;;12.87;11.57;;;6.60;47.80;;;;;;10408234;28;20236;-74
2022/12/04 08:54:29;;;;;;;12.13;10.93;;;6.60;48.00;;;;;;10408530;28;20238;-75
2022/12/04 08:59:38;;;;;;;13.40;12.00;;;6.60;48.20;;;;;;10412389;28;20311;-70
2022/12/04 09:04:41;;;;;;;12.83;11.43;;;6.60;48.20;;;;;;10414851;28;20222;-70
2022/12/04 09:09:46;;;;;;;13.57;11.60;;;6.70;48.30;;;;;;10418034;28;20717;-69
2022/12/04 09:14:50;;;;;;;13.03;11.63;;;6.70;48.50;;;;;;10422926;28;20268;-74
2022/12/04 09:19:53;;;;;;;15.63;12.07;;;6.80;48.50;;;;;;10422376;28;20650;-67
2022/12/04 09:25:06;;;;;;;15.30;13.30;;;6.80;48.50;;;;;;10410004;28;20240;-67
2022/12/04 09:30:11;;;;;;;14.17;12.63;;;6.80;48.70;;;;;;10406379;28;20248;-74
2022/12/04 09:35:14;;;;;;;12.17;10.87;;;6.90;48.60;;;;;;10404481;28;20279;-74
2022/12/04 09:40:26;;;;;;;13.30;11.90;;;7.00;48.60;;;;;;10404981;28;20231;-74
2022/12/04 09:45:45;;;;;;;12.53;11.03;;;7.00;49.00;;;;;;10408542;28;20704;-74
2022/12/04 09:50:50;;;;;;;13.17;11.13;;;7.00;48.80;;;;;;10408358;28;20224;-74
2022/12/04 09:56:00;;;;;;;16.13;13.13;;;7.10;48.60;;;;;;10406087;28;20627;-74
2022/12/04 10:01:04;;;;;;;14.90;12.07;;;7.10;48.80;;;;;;10408165;28;20310;-74
2022/12/04 10:06:14;;;;;;;13.83;11.67;;;7.10;48.40;;;;;;10406573;28;20279;-74
2022/12/04 10:11:27;;;;;;;12.47;11.10;;;7.10;48.70;;;;;;10406736;28;20275;-74
2022/12/04 10:16:46;;;;;;;14.27;11.53;;;7.10;48.70;;;;;;10410161;28;20213;-74
2022/12/04 10:22:00;;;;;;;12.77;10.87;;;7.10;48.70;;;;;;10406936;28;20291;-74
2022/12/04 10:27:11;;;;;;;12.33;10.53;;;7.10;48.60;;;;;;10414863;28;20221;-74
2022/12/04 10:32:19;;;;;;;11.67;10.47;;;7.10;48.70;;;;;;10421984;28;20247;-74
2022/12/04 10:37:24;;;;;;;11.23;10.03;;;7.20;48.80;;;;;;10427444;28;20229;-74
2022/12/04 10:42:35;;;;;;;12.47;10.17;;;7.20;48.80;;;;;;10415018;28;20271;-75
2022/12/04 10:47:43;;;;;;;11.57;10.10;;;7.20;48.90;;;;;;10413089;28;20283;-75
2022/12/04 10:52:46;;;;;;;12.30;11.00;;;7.30;48.80;;;;;;10410437;28;20229;-75
2022/12/04 10:57:51;;;;;;;10.97;9.83;;;7.30;48.80;;;;;;10414676;28;20229;-74
2022/12/04 11:02:57;;;;;;;11.57;10.20;;;7.40;49.00;;;;;;10418969;28;20839;-74
2022/12/04 11:08:03;;;;;;;10.67;9.57;;;7.40;48.90;;;;;;10412745;28;22236;-75
2022/12/04 11:13:15;;;;;;;11.70;10.50;;;7.50;48.90;;;;;;10411767;28;20748;-74
2022/12/04 11:18:21;;;;;;;11.57;10.30;;;7.50;49.10;;;;;;10411658;28;20232;-75
2022/12/04 11:23:25;;;;;;;11.37;10.23;;;7.50;48.80;;;;;;10415522;28;20753;-75
2022/12/04 11:28:32;;;;;;;11.53;10.40;;;7.50;48.80;;;;;;10410869;28;20242;-74
2022/12/04 11:33:47;;;;;;;16.43;13.10;;;7.50;49.00;;;;;;10410498;28;20232;-74
2022/12/04 11:38:53;;;;;;;10.77;9.70;;;7.60;49.00;;;;;;10411735;28;20240;-74
2022/12/04 11:43:58;;;;;;;10.23;9.27;;;7.60;48.90;;;;;;10414828;28;20239;-75
2022/12/04 11:49:03;;;;;;;11.43;10.30;;;7.70;48.90;;;;;;10414476;28;20229;-74
2022/12/04 11:54:15;;;;;;;10.43;9.53;;;7.70;48.80;;;;;;10426200;28;20245;-75
2022/12/04 11:59:48;;;;;;;10.83;9.83;;;7.70;49.00;;;;;;10420095;28;20222;-74
2022/12/04 12:05:08;;;;;;;9.80;8.90;;;7.80;49.30;;;;;;10419913;28;20236;-74
2022/12/04 12:10:16;;;;;;;9.77;8.90;;;7.80;49.00;;;;;;10419078;28;20709;-74
2022/12/04 12:15:27;;;;;;;10.00;9.13;;;7.90;49.00;;;;;;10420389;28;20241;-74
2022/12/04 12:20:37;;;;;;;9.23;8.33;;;7.90;49.00;;;;;;10418707;28;20236;-74
2022/12/04 12:25:49;;;;;;;9.47;8.57;;;8.00;49.00;;;;;;10426797;28;20225;-74
2022/12/04 12:31:11;;;;;;;9.07;8.27;;;8.00;49.00;;;;;;10426245;28;20233;-75
2022/12/04 12:36:15;;;;;;;9.00;8.20;;;8.00;49.00;;;;;;10423097;28;20562;-76
2022/12/04 12:41:23;;;;;;;9.17;8.37;;;8.10;48.90;;;;;;10422848;28;20248;-74
2022/12/04 12:46:32;;;;;;;9.90;9.10;;;8.20;48.90;;;;;;10424033;28;20965;-75
2022/12/04 12:51:42;;;;;;;8.90;8.00;;;8.20;48.90;;;;;;10419828;28;20248;-76
2022/12/04 12:56:49;;;;;;;8.10;7.40;;;8.20;48.90;;;;;;10424168;28;20243;-75
2022/12/04 13:01:58;;;;;;;9.80;9.00;;;8.30;48.90;;;;;;10417841;28;20650;-75
2022/12/04 13:07:20;;;;;;;9.03;8.23;;;8.40;49.00;;;;;;10422835;28;20612;-74
2022/12/04 13:12:24;;;;;;;8.07;7.27;;;8.40;48.90;;;;;;10408891;28;20233;-69
2022/12/04 13:17:33;;;;;;;9.00;8.27;;;8.40;50.60;;;;;;10409486;28;20279;-75
2022/12/04 13:22:48;;;;;;;9.27;8.40;;;8.60;51.50;;;;;;10415133;28;22172;-75
2022/12/04 13:28:04;;;;;;;9.67;8.77;;;8.70;49.90;;;;;;10414350;28;20241;-75
2022/12/04 13:33:42;;;;;;;8.40;7.70;;;8.80;49.20;;;;;;10416949;28;20244;-74
2022/12/04 13:38:56;;;;;;;11.83;10.80;;;8.80;48.90;;;;;;10419854;28;20791;-75
2022/12/04 13:44:00;;;;;;;10.23;9.23;;;8.80;48.60;;;;;;10423537;28;20222;-75
2022/12/04 13:49:25;;;;;;;10.07;9.10;;;8.80;48.60;;;;;;10415266;28;20232;-75
2022/12/04 13:54:33;;;;;;;9.23;8.43;;;8.80;48.70;;;;;;10404906;28;20236;-75
2022/12/04 13:59:39;;;;;;;10.50;9.60;;;8.70;50.10;;;;;;10421804;28;20244;-75
2022/12/04 14:04:53;;;;;;;9.80;8.90;;;8.80;49.60;;;;;;10414338;28;20596;-67
2022/12/04 14:10:00;;;;;;;8.90;8.20;;;8.80;49.10;;;;;;10412837;28;20244;-68
2022/12/04 14:15:07;;;;;;;9.90;9.03;;;8.80;48.70;;;;;;10412724;28;20701;-68
2022/12/04 14:20:25;;;;;;;10.00;8.67;;;8.80;48.60;;;;;;10413194;28;20229;-72
2022/12/04 14:25:37;;;;;;;9.77;8.87;;;8.80;48.70;;;;;;10411116;28;20236;-71
2022/12/04 14:30:43;;;;;;;10.20;9.30;;;8.80;48.80;;;;;;10413700;28;20225;-68
2022/12/04 14:35:52;;;;;;;11.50;10.40;;;8.70;48.60;;;;;;10417328;28;20276;-67
2022/12/04 14:40:57;;;;;;;11.03;9.93;;;8.70;48.70;;;;;;10418388;28;20721;-74
2022/12/04 14:46:05;;;;;;;11.87;10.80;;;8.70;48.70;;;;;;10410541;28;20901;-69
2022/12/04 14:51:18;;;;;;;11.20;10.13;;;8.70;48.90;;;;;;10418945;28;20240;-68
2022/12/04 14:56:30;;;;;;;12.80;11.70;;;8.70;49.20;;;;;;10417358;28;20237;-69
2022/12/04 15:01:37;;;;;;;11.07;10.07;;;8.70;49.30;;;;;;10415605;28;20225;-72
2022/12/04 15:06:43;;;;;;;11.70;10.60;;;8.70;49.10;;;;;;10411416;28;20233;-75
2022/12/04 15:17:12;;;;;;;11.70;10.60;;;8.70;49.00;;;;;;10419951;28;21095;-70
2022/12/04 15:22:22;;;;;;;10.73;9.63;;;8.60;48.80;;;;;;10420185;28;20240;-69
2022/12/04 15:27:27;;;;;;;11.40;10.40;;;8.60;48.90;;;;;;10426307;28;20241;-69
2022/12/04 15:32:35;;;;;;;11.67;10.60;;;8.70;48.80;;;;;;10420449;28;20291;-75
2022/12/04 15:37:41;;;;;;;11.80;10.70;;;8.70;48.80;;;;;;10413622;28;20283;-69
2022/12/04 15:42:44;;;;;;;11.73;9.13;;;8.70;48.90;;;;;;10413427;28;20246;-71
2022/12/04 15:47:52;;;;;;;12.80;11.50;;;8.70;49.60;;;;;;10408028;28;20233;-74
2022/12/04 15:53:01;;;;;;;12.03;10.93;;;8.80;50.70;;;;;;10417440;28;20245;-74
2022/12/04 15:58:08;;;;;;;13.00;11.80;;;8.90;49.50;;;;;;10409308;28;20228;-74
2022/12/04 16:03:24;;;;;;;13.07;11.87;;;9.00;48.90;;;;;;10410871;28;20233;-74
2022/12/04 16:08:32;;;;;;;13.30;12.10;;;8.90;48.40;;;;;;10415728;28;20375;-74
2022/12/04 16:13:37;;;;;;;14.93;13.57;;;8.80;48.40;;;;;;10408419;28;20744;-75
2022/12/04 16:18:41;;;;;;;16.33;14.73;;;8.80;48.50;;;;;;10415397;28;20235;-73
2022/12/04 16:23:46;;;;;;;19.70;16.87;;;8.70;48.40;;;;;;10418092;28;20238;-67
2022/12/04 16:28:49;;;;;;;20.90;17.20;;;8.60;48.50;;;;;;10419425;28;20673;-67
2022/12/04 16:33:52;;;;;;;22.17;17.27;;;8.50;48.50;;;;;;10420019;28;20229;-67
2022/12/04 16:38:57;;;;;;;21.70;15.70;;;8.40;48.30;;;;;;10419841;28;20237;-67
2022/12/04 16:44:01;;;;;;;20.70;16.43;;;8.40;48.40;;;;;;10419406;28;20233;-67
2022/12/04 16:49:04;;;;;;;22.80;18.97;;;8.20;48.40;;;;;;10414078;28;20245;-75
2022/12/04 16:54:12;;;;;;;20.00;16.07;;;8.10;48.70;;;;;;10413453;28;20233;-77
2022/12/04 16:59:15;;;;;;;21.80;18.20;;;8.10;48.90;;;;;;10427223;28;20237;-75
2022/12/04 17:04:19;;;;;;;23.03;18.60;;;8.10;48.80;;;;;;10417807;28;20227;-70
2022/12/04 17:09:24;;;;;;;21.97;17.43;;;8.10;48.80;;;;;;10416419;28;20236;-75
2022/12/04 17:14:27;;;;;;;20.50;16.40;;;8.10;48.60;;;;;;10421883;28;20615;-75
2022/12/04 17:19:30;;;;;;;22.43;18.23;;;8.10;48.60;;;;;;10414257;28;20242;-69
2022/12/04 17:24:35;;;;;;;21.70;18.40;;;8.00;48.60;;;;;;10425057;28;20255;-75
2022/12/04 17:29:42;;;;;;;23.77;18.37;;;8.00;48.50;;;;;;10419818;28;20256;-70
2022/12/04 17:34:45;;;;;;;25.07;18.60;;;8.00;48.40;;;;;;10416755;28;20237;-70
2022/12/04 17:39:50;;;;;;;25.43;18.97;;;7.90;48.50;;;;;;10416758;28;20225;-70
2022/12/04 17:44:54;;;;;;;19.60;16.40;;;7.80;48.60;;;;;;10418854;28;20229;-75
2022/12/04 17:49:57;;;;;;;18.87;15.50;;;7.80;48.70;;;;;;10428022;28;20279;-76
2022/12/04 17:55:02;;;;;;;20.67;16.33;;;7.70;48.60;;;;;;10419077;28;20314;-70
2022/12/04 18:00:07;;;;;;;18.43;14.97;;;7.70;48.50;;;;;;10414056;28;20725;-70
2022/12/04 18:05:10;;;;;;;20.87;15.90;;;7.70;48.50;;;;;;10418207;28;20231;-76
2022/12/04 18:10:15;;;;;;;19.50;14.87;;;7.70;48.60;;;;;;10424868;28;20233;-70
2022/12/04 18:15:18;;;;;;;18.13;13.97;;;7.60;48.70;;;;;;10403630;28;20702;-67
2022/12/04 18:20:21;;;;;;;18.90;14.77;;;7.60;48.80;;;;;;10413240;28;20348;-69
2022/12/04 18:25:26;;;;;;;18.93;14.37;;;7.70;48.60;;;;;;10407813;28;20230;-67
2022/12/04 18:30:29;;;;;;;19.07;13.93;;;7.70;48.60;;;;;;10410392;28;20240;-67
2022/12/04 18:35:32;;;;;;;20.17;15.53;;;7.70;48.90;;;;;;10417001;28;20255;-67
2022/12/04 18:40:37;;;;;;;21.70;16.23;;;7.70;48.70;;;;;;10414526;28;20244;-67
2022/12/04 18:45:42;;;;;;;22.97;16.17;;;7.70;48.60;;;;;;10411119;28;20233;-67
2022/12/04 18:50:45;;;;;;;26.90;18.60;;;7.70;48.50;;;;;;10418980;28;20233;-67
2022/12/04 18:55:50;;;;;;;22.33;16.60;;;7.70;48.60;;;;;;10420953;28;20740;-67
2022/12/04 19:00:53;;;;;;;23.20;16.23;;;7.60;48.80;;;;;;10422818;28;20236;-67
2022/12/04 19:05:56;;;;;;;25.13;16.47;;;7.50;48.60;;;;;;10418364;28;20571;-67
2022/12/04 19:11:07;;;;;;;25.97;17.97;;;7.50;48.60;;;;;;10420106;28;20701;-67
2022/12/04 19:16:12;;;;;;;24.63;17.07;;;7.50;48.90;;;;;;10419827;28;20279;-67
2022/12/04 19:21:15;;;;;;;25.47;17.97;;;7.40;48.80;;;;;;10423056;28;20265;-67
2022/12/04 19:26:20;;;;;;;27.10;18.00;;;7.40;48.90;;;;;;10422396;28;20236;-67
2022/12/04 19:31:26;;;;;;;23.60;15.53;;;7.40;49.00;;;;;;10421503;28;20651;-69
2022/12/04 19:36:31;;;;;;;25.47;15.90;;;7.40;49.00;;;;;;10424857;28;20234;-70
2022/12/04 19:41:37;;;;;;;28.47;17.60;;;7.30;49.00;;;;;;10419407;28;20252;-70
2022/12/04 19:46:40;;;;;;;22.77;15.43;;;7.30;49.30;;;;;;10417708;28;20221;-70
2022/12/04 19:51:43;;;;;;;25.20;15.57;;;7.30;49.30;;;;;;10414410;28;20230;-70
2022/12/04 19:56:50;;;;;;;24.90;16.13;;;7.40;49.30;;;;;;10418141;28;20233;-70
2022/12/04 20:01:53;;;;;;;23.83;16.10;;;7.40;49.60;;;;;;10418438;28;20315;-76
2022/12/04 20:06:56;;;;;;;23.13;15.97;;;7.40;49.40;;;;;;10428650;28;20312;-70
2022/12/04 20:12:01;;;;;;;23.47;16.23;;;7.50;49.50;;;;;;10421176;28;21100;-70
2022/12/04 20:17:05;;;;;;;23.20;16.40;;;7.50;49.30;;;;;;10416839;28;20316;-70
2022/12/04 20:22:08;;;;;;;25.03;16.47;;;7.50;49.10;;;;;;10419048;28;20723;-67
2022/12/04 20:27:12;;;;;;;19.73;14.97;;;7.50;49.20;;;;;;10420463;28;20253;-70
2022/12/04 20:32:15;;;;;;;21.23;15.10;;;7.50;49.30;;;;;;10417533;28;20233;-70
2022/12/04 20:37:18;;;;;;;19.77;14.67;;;7.50;49.30;;;;;;10408231;28;20686;-70
2022/12/04 20:42:23;;;;;;;17.17;13.10;;;7.50;49.20;;;;;;10420499;28;20243;-70
2022/12/04 20:47:35;;;;;;;18.00;13.60;;;7.40;49.20;;;;;;10418063;28;20327;-70
2022/12/04 20:52:38;;;;;;;20.10;14.17;;;7.40;49.30;;;;;;10413896;28;20672;-70
2022/12/04 20:57:43;;;;;;;16.97;12.83;;;7.30;49.20;;;;;;10409113;28;20229;-69
2022/12/04 21:02:46;;;;;;;15.73;12.37;;;7.30;49.30;;;;;;10407724;28;20241;-70
2022/12/04 21:07:49;;;;;;;15.57;12.43;;;7.30;49.50;;;;;;10407501;28;20320;-69
2022/12/04 21:18:13;;;;;;;15.23;12.03;;;7.30;49.70;;;;;;10375021;28;20228;-69
2022/12/04 21:23:16;;;;;;;14.57;12.00;;;7.30;49.60;;;;;;10411723;28;20233;-69
2022/12/04 21:28:21;;;;;;;16.97;12.30;;;7.40;49.70;;;;;;10417065;28;20240;-69
2022/12/04 21:33:24;;;;;;;17.03;12.87;;;7.40;49.50;;;;;;10409386;28;20922;-75
2022/12/04 21:38:27;;;;;;;19.60;13.67;;;7.40;49.40;;;;;;10417114;28;20754;-75
2022/12/04 21:43:32;;;;;;;17.23;12.93;;;7.30;49.30;;;;;;10419791;28;20268;-75
2022/12/04 21:48:36;;;;;;;19.10;14.30;;;7.30;49.50;;;;;;10416714;28;20236;-75
2022/12/04 21:53:39;;;;;;;21.70;14.80;;;7.30;49.50;;;;;;10409863;28;20728;-69
2022/12/04 21:58:46;;;;;;;17.67;13.80;;;7.30;49.50;;;;;;10412080;28;20248;-66
2022/12/04 22:03:50;;;;;;;21.53;14.63;;;7.20;49.70;;;;;;10404363;28;20278;-69
2022/12/04 22:08:54;;;;;;;20.20;14.23;;;7.20;49.70;;;;;;10403569;28;20233;-69
2022/12/04 22:13:58;;;;;;;19.70;14.00;;;7.30;49.60;;;;;;10409233;28;20221;-68
2022/12/04 22:19:02;;;;;;;19.07;13.80;;;7.20;49.70;;;;;;10405207;28;21792;-69
2022/12/04 22:24:06;;;;;;;22.50;14.63;;;7.20;49.70;;;;;;10406864;28;20237;-69
2022/12/04 22:29:10;;;;;;;20.90;15.07;;;7.30;49.70;;;;;;10417492;28;20230;-69
2022/12/04 22:34:34;;;;;;;21.20;14.97;;;7.30;49.60;;;;;;10417901;28;20233;-68
2022/12/04 22:39:37;;;;;;;20.60;15.87;;;7.30;49.50;;;;;;10414691;28;20239;-69
2022/12/04 22:44:41;;;;;;;21.60;14.93;;;7.30;49.40;;;;;;10417162;28;20275;-69
2022/12/04 22:49:45;;;;;;;20.87;14.87;;;7.30;49.50;;;;;;10415202;28;20615;-69
2022/12/04 22:54:50;;;;;;;20.63;14.87;;;7.30;49.40;;;;;;10429923;28;20235;-69
2022/12/04 22:59:54;;;;;;;20.77;15.13;;;7.20;49.80;;;;;;10422727;28;20240;-69
2022/12/04 23:04:58;;;;;;;21.63;14.97;;;7.20;49.70;;;;;;10425434;28;20938;-69
2022/12/04 23:10:01;;;;;;;22.50;14.70;;;7.20;49.90;;;;;;10421073;28;20313;-69
2022/12/04 23:15:07;;;;;;;19.13;14.43;;;7.30;49.90;;;;;;10420932;28;20346;-69
2022/12/04 23:20:10;;;;;;;19.37;14.00;;;7.30;49.70;;;;;;10422407;28;20751;-69
2022/12/04 23:25:14;;;;;;;19.17;14.03;;;7.30;49.50;;;;;;10420387;28;20236;-69
2022/12/04 23:30:18;;;;;;;17.63;13.87;;;7.20;49.50;;;;;;10429808;28;20243;-75
2022/12/04 23:35:30;;;;;;;16.97;12.97;;;7.20;49.80;;;;;;10423725;28;20316;-74
2022/12/04 23:40:33;;;;;;;18.17;14.00;;;7.30;49.80;;;;;;10426172;28;20256;-69
2022/12/04 23:45:39;;;;;;;18.97;14.80;;;7.30;49.60;;;;;;10419307;28;20716;-69
2022/12/04 23:50:42;;;;;;;19.57;14.63;;;7.30;49.70;;;;;;10418238;28;20239;-69
2022/12/04 23:55:55;;;;;;;17.63;13.27;;;7.30;49.60;;;;;;10418778;28;20225;-68
